Řízení letového provozu České republiky
OPMET data - Ceska Republika Aktualizace: 19.09.2018 18:31:06  UTC
SIGMET / AIRMET - NIL
Warning / Vystraha - NIL
 
METAR / SPECI
METAR LKBC 191830Z AUTO VRB02KT CAVOK 17/15 Q1021=
METAR LKCV 191800Z 20005KT CAVOK 21/15 Q1020 NOSIG RMK BLU BLU=
METAR LKKB 191800Z 18005KT CAVOK 22/15 Q1020 NOSIG RMK BLU BLU=
METAR LKKU NIL
METAR LKKV 191830Z VRB02KT CAVOK 18/11 Q1022 RMK REG QNH 1018=
METAR LKLN 191830Z AUTO 24005KT CAVOK 22/13 Q1021=
METAR LKMT 191830Z 20004KT CAVOK 19/12 Q1021 NOSIG RMK REG QNH 1018 =
METAR LKNA 191800Z 14003KT CAVOK 19/14 Q1022 NOSIG RMK BLU BLU=
METAR LKPD 191800Z VRB02KT CAVOK 22/14 Q1020 NOSIG RMK BLU BLU=
METAR LKPR 191830Z 22007KT CAVOK 20/12 Q1020 NOSIG RMK REG QNH 1018=
METAR LKTB 191830Z 06003KT CAVOK 21/15 Q1021 NOSIG RMK REG QNH 1018=
METAR LKVO NIL
TAF
TAF LKBC NIL
TAF LKCV 191700Z 1918/2018 20006KT CAVOK      BECMG 1922/2000 12005KT=
TAF LKKB 191700Z 1918/2018 20004KT CAVOK      BECMG 1918/1920 VRB02KT      PROB30 TEMPO 2000/2006 5000 BR NSC      BECMG 2008/2010 20008KT=
TAF LKKU NIL
TAF LKKV 191700Z 1918/2100 VRB02KT CAVOK      TEMPO 2002/2006 5000 BR MIFG NSC      BECMG 2008/2011 31006KT      BECMG 2017/2019 VRB02KT=
TAF LKLN NIL
TAF LKMT 191700Z 1918/2100 20003KT CAVOK      BECMG 2007/2009 23008KT      BECMG 2018/2020 VRB02KT=
TAF LKNA 191700Z 1918/2018 14004KT CAVOK      TEMPO 2000/2006 3000 BR NSC      BECMG 2008/2010 23004KT=
TAF LKPD 191700Z 1918/2018 VRB02KT CAVOK      PROB40 TEMPO 2001/2006 4000 BR NSC=
TAF LKPR 191700Z 1918/2100 23006KT CAVOK      TEMPO 1918/2007 VRB02KT=
TAF LKTB 191700Z 1918/2100 VRB02KT CAVOK      TEMPO 2002/2006 3000 BR NSC      BECMG 2008/2010 18006KT      BECMG 2018/2020 VRB02KT=
TAF LKVO NIL